Time;durP1;ratioP1;P1;durP2;ratioP2;P2;SDS_P1;SDS_P2;PMS_P1;PMS_P2;Temp;Humidity;BMP_temperature;BMP_pressure;BME280_temperature;BME280_humidity;BME280_pressure;Samples;Min_cycle;Max_cycle;Signal;HPM_P1;HPM_P2
2023/07/24 00:02:01;;;;;;;7.70;6.97;;;;;;;;;;4970680;28;20448;-70
2023/07/24 00:04:27;;;;;;;7.57;6.20;;;;;;;;;;4969951;28;20429;-71
2023/07/24 00:06:54;;;;;;;9.93;5.67;;;;;;;;;;4972098;28;20437;-71
2023/07/24 00:09:20;;;;;;;4.70;4.40;;;;;;;;;;4969886;28;20469;-70
2023/07/24 00:11:46;;;;;;;5.93;5.40;;;;;;;;;;4970125;28;20512;-71
2023/07/24 00:14:12;;;;;;;9.00;6.83;;;;;;;;;;4970014;28;20499;-70
2023/07/24 00:16:38;;;;;;;6.63;6.10;;;;;;;;;;4970674;28;20434;-70
2023/07/24 00:19:04;;;;;;;7.40;6.53;;;;;;;;;;4969296;28;20852;-71
2023/07/24 00:21:30;;;;;;;7.10;6.50;;;;;;;;;;4970373;28;20422;-70
2023/07/24 00:23:56;;;;;;;7.17;6.47;;;;;;;;;;4969463;28;20438;-71
2023/07/24 00:26:22;;;;;;;6.13;5.63;;;;;;;;;;4969465;28;20454;-71
2023/07/24 00:28:48;;;;;;;6.73;6.03;;;;;;;;;;4969691;28;20496;-70
2023/07/24 00:31:14;;;;;;;6.23;5.73;;;;;;;;;;4970201;28;20944;-70
2023/07/24 00:33:40;;;;;;;7.33;6.57;;;;;;;;;;4969542;28;20515;-71
2023/07/24 00:36:06;;;;;;;6.97;6.30;;;;;;;;;;4970473;28;20423;-70
2023/07/24 00:38:32;;;;;;;10.50;6.17;;;;;;;;;;4970064;28;20445;-70
2023/07/24 00:40:58;;;;;;;4.53;4.20;;;;;;;;;;4968588;28;20510;-70
2023/07/24 00:43:24;;;;;;;9.10;6.40;;;;;;;;;;4969162;28;20446;-71
2023/07/24 00:45:50;;;;;;;7.17;6.50;;;;;;;;;;4970132;28;21014;-70
2023/07/24 00:48:16;;;;;;;6.67;6.10;;;;;;;;;;4969071;28;20452;-71
2023/07/24 00:50:46;;;;;;;9.83;7.10;;;;;;;;;;4969597;28;20444;-70
2023/07/24 00:53:12;;;;;;;11.60;6.70;;;;;;;;;;4969942;28;20482;-71
2023/07/24 00:55:38;;;;;;;7.27;6.33;;;;;;;;;;4968880;28;20800;-70
2023/07/24 00:58:05;;;;;;;7.10;6.50;;;;;;;;;;4969326;28;20464;-70
2023/07/24 01:00:31;;;;;;;16.87;6.93;;;;;;;;;;4969889;28;20422;-70
2023/07/24 01:02:57;;;;;;;5.90;5.40;;;;;;;;;;4969120;28;20928;-71
2023/07/24 01:05:25;;;;;;;7.20;5.67;;;;;;;;;;4969515;28;20446;-71
2023/07/24 01:07:52;;;;;;;6.60;6.10;;;;;;;;;;4968229;28;20445;-71
2023/07/24 01:10:18;;;;;;;8.47;6.10;;;;;;;;;;4969425;28;20525;-71
2023/07/24 01:13:00;;;;;;;7.40;6.80;;;;;;;;;;4969586;28;20564;-70
2023/07/24 01:15:44;;;;;;;6.70;6.10;;;;;;;;;;4969525;28;20445;-71
2023/07/24 01:18:10;;;;;;;6.17;5.67;;;;;;;;;;4969232;28;20457;-71
2023/07/24 01:20:38;;;;;;;6.47;5.77;;;;;;;;;;4967997;28;20430;-71
2023/07/24 01:23:13;;;;;;;6.50;5.90;;;;;;;;;;4969138;28;20503;-71
2023/07/24 01:25:50;;;;;;;6.73;6.10;;;;;;;;;;4968239;28;20445;-70
2023/07/24 01:28:16;;;;;;;6.97;6.40;;;;;;;;;;4969444;28;20446;-71
2023/07/24 01:30:42;;;;;;;9.80;6.13;;;;;;;;;;4968930;28;20434;-71
2023/07/24 01:33:08;;;;;;;7.07;6.40;;;;;;;;;;4968905;28;20485;-71
2023/07/24 01:35:35;;;;;;;6.50;6.00;;;;;;;;;;4967769;28;20541;-70
2023/07/24 01:38:01;;;;;;;7.10;6.60;;;;;;;;;;4969643;28;20790;-70
2023/07/24 01:40:27;;;;;;;8.27;7.00;;;;;;;;;;4966776;28;20468;-70
2023/07/24 01:42:54;;;;;;;6.10;5.70;;;;;;;;;;4968275;28;20446;-70
2023/07/24 01:45:20;;;;;;;5.20;4.47;;;;;;;;;;4968550;28;20491;-71
2023/07/24 01:47:46;;;;;;;9.00;6.20;;;;;;;;;;4968759;28;20938;-71
2023/07/24 01:50:12;;;;;;;14.03;6.97;;;;;;;;;;4969782;28;21189;-71
2023/07/24 01:52:37;;;;;;;8.43;7.03;;;;;;;;;;4967070;28;20547;-71
2023/07/24 01:55:04;;;;;;;8.07;7.23;;;;;;;;;;4968333;28;20446;-71
2023/07/24 01:57:30;;;;;;;8.90;8.13;;;;;;;;;;4968120;28;20840;-71
2023/07/24 01:59:56;;;;;;;9.80;8.30;;;;;;;;;;4968915;28;20588;-70
2023/07/24 02:02:22;;;;;;;11.00;7.70;;;;;;;;;;4968188;28;20934;-70
2023/07/24 02:04:47;;;;;;;7.33;6.63;;;;;;;;;;4968197;28;20449;-70
2023/07/24 02:07:13;;;;;;;5.70;5.40;;;;;;;;;;4968234;28;20816;-70
2023/07/24 02:09:39;;;;;;;9.67;7.60;;;;;;;;;;4968807;28;20437;-70
2023/07/24 02:12:06;;;;;;;7.80;6.93;;;;;;;;;;4968420;28;20768;-70
2023/07/24 02:14:32;;;;;;;15.50;7.53;;;;;;;;;;4968567;28;20442;-71
2023/07/24 02:16:58;;;;;;;11.20;7.33;;;;;;;;;;4966398;28;20437;-71
2023/07/24 02:19:24;;;;;;;7.27;6.60;;;;;;;;;;4968819;28;20438;-71
2023/07/24 02:21:50;;;;;;;8.27;7.30;;;;;;;;;;4967734;28;20996;-70
2023/07/24 02:24:15;;;;;;;7.03;5.83;;;;;;;;;;4968114;28;20474;-70
2023/07/24 02:26:41;;;;;;;8.27;7.03;;;;;;;;;;4968308;28;20481;-71
2023/07/24 02:29:07;;;;;;;7.13;6.43;;;;;;;;;;4969040;28;20449;-70
2023/07/24 02:31:34;;;;;;;12.13;6.70;;;;;;;;;;4967335;28;20472;-71
2023/07/24 02:34:00;;;;;;;7.67;6.87;;;;;;;;;;4967644;28;20941;-71
2023/07/24 02:36:26;;;;;;;7.00;6.33;;;;;;;;;;4967720;28;20499;-71
2023/07/24 02:38:52;;;;;;;13.50;7.37;;;;;;;;;;4968634;28;20426;-70
2023/07/24 02:41:18;;;;;;;7.37;6.60;;;;;;;;;;4969074;28;20445;-71
2023/07/24 02:43:44;;;;;;;6.30;5.80;;;;;;;;;;4967806;28;20431;-71
2023/07/24 02:46:10;;;;;;;5.07;4.67;;;;;;;;;;4966493;28;20540;-71
2023/07/24 02:48:36;;;;;;;6.57;5.80;;;;;;;;;;4967858;28;20476;-71
2023/07/24 02:51:02;;;;;;;7.13;5.70;;;;;;;;;;4968085;28;20529;-71
2023/07/24 02:53:28;;;;;;;6.57;5.90;;;;;;;;;;4967120;28;20521;-71
2023/07/24 02:55:54;;;;;;;6.50;6.10;;;;;;;;;;4968084;28;20949;-71
2023/07/24 02:58:20;;;;;;;6.10;5.67;;;;;;;;;;4969199;28;20517;-71
2023/07/24 03:00:46;;;;;;;6.53;5.93;;;;;;;;;;4967441;28;21030;-70
2023/07/24 03:03:12;;;;;;;8.40;6.17;;;;;;;;;;4967818;28;20437;-70
2023/07/24 03:05:38;;;;;;;9.77;5.17;;;;;;;;;;4966847;28;20442;-71
2023/07/24 03:08:04;;;;;;;5.03;4.80;;;;;;;;;;4967501;28;20453;-71
2023/07/24 03:10:30;;;;;;;4.90;4.47;;;;;;;;;;4968238;28;20580;-71
2023/07/24 03:12:56;;;;;;;6.17;5.67;;;;;;;;;;4967802;28;21064;-71
2023/07/24 03:15:22;;;;;;;10.20;6.17;;;;;;;;;;4966833;28;20778;-70
2023/07/24 03:17:48;;;;;;;7.07;6.37;;;;;;;;;;4968254;28;20503;-70
2023/07/24 03:20:15;;;;;;;13.83;6.60;;;;;;;;;;4968146;28;20928;-71
2023/07/24 03:22:41;;;;;;;7.00;6.30;;;;;;;;;;4966231;28;20464;-70
2023/07/24 03:25:08;;;;;;;6.87;6.20;;;;;;;;;;4967516;28;20509;-70
2023/07/24 03:27:34;;;;;;;7.47;6.60;;;;;;;;;;4968042;28;20482;-70
2023/07/24 03:30:00;;;;;;;8.83;6.87;;;;;;;;;;4966505;28;21040;-70
2023/07/24 03:32:25;;;;;;;6.50;5.90;;;;;;;;;;4967727;28;20466;-71
2023/07/24 03:34:51;;;;;;;10.43;7.17;;;;;;;;;;4966031;28;20450;-71
2023/07/24 03:37:18;;;;;;;7.37;6.67;;;;;;;;;;4965322;28;20430;-71
2023/07/24 03:39:43;;;;;;;13.43;6.80;;;;;;;;;;4966107;28;20939;-71
2023/07/24 03:42:12;;;;;;;7.47;6.73;;;;;;;;;;4968139;28;20429;-70
2023/07/24 03:44:38;;;;;;;6.77;6.20;;;;;;;;;;4966699;28;20445;-71
2023/07/24 03:47:04;;;;;;;13.00;6.00;;;;;;;;;;4967487;28;20446;-71
2023/07/24 03:49:30;;;;;;;6.50;5.90;;;;;;;;;;4967062;28;20448;-70
2023/07/24 03:51:56;;;;;;;9.00;7.13;;;;;;;;;;4963861;28;20534;-70
2023/07/24 03:54:22;;;;;;;7.80;7.10;;;;;;;;;;4963123;28;20840;-70
2023/07/24 03:56:48;;;;;;;9.23;7.00;;;;;;;;;;4967192;28;20445;-71
2023/07/24 03:59:14;;;;;;;7.37;6.73;;;;;;;;;;4964048;28;20439;-70
2023/07/24 04:01:40;;;;;;;8.73;7.87;;;;;;;;;;4964942;28;20460;-70
2023/07/24 04:04:06;;;;;;;7.50;6.90;;;;;;;;;;4966425;28;20492;-70
2023/07/24 04:06:32;;;;;;;7.97;6.20;;;;;;;;;;4972212;28;20470;-70
2023/07/24 04:08:59;;;;;;;8.40;6.53;;;;;;;;;;4965674;28;20442;-70
2023/07/24 04:11:25;;;;;;;7.27;6.67;;;;;;;;;;4966294;28;20433;-70
2023/07/24 04:13:51;;;;;;;11.87;7.10;;;;;;;;;;4966038;28;20485;-71
2023/07/24 04:16:17;;;;;;;8.17;7.50;;;;;;;;;;4974230;28;20918;-70
2023/07/24 04:18:43;;;;;;;11.00;6.27;;;;;;;;;;4970093;28;20442;-71
2023/07/24 04:21:09;;;;;;;6.37;5.97;;;;;;;;;;4969053;28;20437;-69
2023/07/24 04:23:34;;;;;;;9.27;8.20;;;;;;;;;;4969724;28;20851;-70
2023/07/24 04:26:00;;;;;;;8.00;6.53;;;;;;;;;;4968387;28;20470;-71
2023/07/24 04:28:26;;;;;;;7.17;6.53;;;;;;;;;;4972054;28;20442;-70
2023/07/24 04:30:52;;;;;;;9.50;7.63;;;;;;;;;;4970243;28;20465;-70
2023/07/24 04:33:18;;;;;;;8.50;6.70;;;;;;;;;;4968799;28;20489;-71
2023/07/24 04:35:48;;;;;;;11.30;6.73;;;;;;;;;;4969319;28;20506;-70
2023/07/24 04:38:14;;;;;;;9.03;6.67;;;;;;;;;;4969534;28;20528;-71
2023/07/24 04:40:40;;;;;;;11.37;6.77;;;;;;;;;;4970005;28;20895;-70
2023/07/24 04:43:06;;;;;;;6.83;6.13;;;;;;;;;;4968267;28;20549;-70
2023/07/24 04:45:32;;;;;;;6.73;6.20;;;;;;;;;;4968530;28;20434;-71
2023/07/24 04:47:58;;;;;;;7.93;7.23;;;;;;;;;;4971646;28;20437;-71
2023/07/24 04:50:24;;;;;;;7.37;6.87;;;;;;;;;;4967862;28;20435;-70
2023/07/24 04:52:50;;;;;;;7.70;6.40;;;;;;;;;;4968301;28;20542;-71
2023/07/24 04:55:16;;;;;;;7.73;5.83;;;;;;;;;;4999137;28;20422;-71
2023/07/24 04:57:42;;;;;;;7.37;6.77;;;;;;;;;;4968923;28;20501;-67
2023/07/24 05:00:08;;;;;;;5.37;4.97;;;;;;;;;;4969469;28;20513;-67
2023/07/24 05:02:34;;;;;;;6.50;5.90;;;;;;;;;;4969313;28;20434;-66
2023/07/24 05:05:00;;;;;;;6.73;6.10;;;;;;;;;;4968549;28;20441;-67
2023/07/24 05:07:26;;;;;;;8.43;5.93;;;;;;;;;;4970509;28;20454;-66
2023/07/24 05:09:53;;;;;;;11.57;7.00;;;;;;;;;;4968315;28;20453;-67
2023/07/24 05:12:19;;;;;;;6.20;5.57;;;;;;;;;;4970346;28;20961;-67
2023/07/24 05:14:45;;;;;;;12.77;6.50;;;;;;;;;;4967947;28;20535;-67
2023/07/24 05:17:11;;;;;;;11.87;5.73;;;;;;;;;;4969448;28;20902;-67
2023/07/24 05:19:37;;;;;;;5.93;5.40;;;;;;;;;;4970257;28;20433;-67
2023/07/24 05:22:03;;;;;;;8.60;6.27;;;;;;;;;;4969877;28;20434;-66
2023/07/24 05:24:29;;;;;;;4.63;4.33;;;;;;;;;;4970140;28;20445;-66
2023/07/24 05:26:55;;;;;;;10.73;5.70;;;;;;;;;;4969546;28;20442;-67
2023/07/24 05:29:21;;;;;;;8.43;5.60;;;;;;;;;;4969800;28;21017;-67
2023/07/24 05:31:47;;;;;;;5.93;5.43;;;;;;;;;;4968636;28;20525;-67
2023/07/24 05:34:13;;;;;;;7.80;5.17;;;;;;;;;;4970423;28;20863;-66
2023/07/24 05:36:41;;;;;;;4.60;4.20;;;;;;;;;;4970360;28;20426;-66
2023/07/24 05:39:07;;;;;;;6.87;4.33;;;;;;;;;;4970132;28;20446;-66
2023/07/24 05:41:33;;;;;;;7.67;7.00;;;;;;;;;;4969451;28;20467;-74
2023/07/24 05:43:59;;;;;;;7.83;4.30;;;;;;;;;;4968618;28;20517;-71
2023/07/24 05:46:25;;;;;;;6.07;3.70;;;;;;;;;;4968694;28;20911;-71
2023/07/24 05:48:51;;;;;;;3.57;3.30;;;;;;;;;;4970337;28;20186;-71
2023/07/24 05:51:17;;;;;;;4.33;3.97;;;;;;;;;;4968936;28;20480;-70
2023/07/24 05:53:43;;;;;;;12.00;4.43;;;;;;;;;;4971629;28;20865;-70
2023/07/24 05:56:09;;;;;;;4.57;4.27;;;;;;;;;;4969206;28;20413;-70
2023/07/24 05:58:35;;;;;;;5.13;4.63;;;;;;;;;;4969801;28;20430;-70
2023/07/24 06:01:01;;;;;;;6.00;4.73;;;;;;;;;;4970484;28;20645;-70
2023/07/24 06:03:27;;;;;;;5.33;4.10;;;;;;;;;;4968599;28;20476;-72
2023/07/24 06:05:54;;;;;;;10.80;4.30;;;;;;;;;;4967933;28;20501;-70
2023/07/24 06:08:20;;;;;;;4.30;3.87;;;;;;;;;;4969017;28;20934;-71
2023/07/24 06:10:47;;;;;;;8.73;4.50;;;;;;;;;;4968982;28;20436;-71
2023/07/24 06:13:14;;;;;;;131.07;12.03;;;;;;;;;;4969781;28;20489;-70
2023/07/24 06:15:40;;;;;;;4.40;4.13;;;;;;;;;;4968682;28;20525;-70
2023/07/24 06:18:06;;;;;;;5.33;4.60;;;;;;;;;;4968232;28;20566;-71
2023/07/24 06:20:32;;;;;;;4.67;4.17;;;;;;;;;;4967501;28;20441;-70
2023/07/24 06:22:57;;;;;;;5.47;4.40;;;;;;;;;;4968334;28;20529;-71
2023/07/24 06:25:23;;;;;;;4.03;3.60;;;;;;;;;;4968718;28;20441;-70
2023/07/24 06:27:49;;;;;;;4.80;3.27;;;;;;;;;;4968535;28;20446;-70
2023/07/24 06:30:15;;;;;;;5.50;4.03;;;;;;;;;;4969378;28;20271;-71
2023/07/24 06:32:41;;;;;;;3.80;3.50;;;;;;;;;;4968913;28;20481;-70
2023/07/24 06:35:07;;;;;;;6.97;5.23;;;;;;;;;;4968006;28;20548;-71
2023/07/24 06:37:33;;;;;;;7.00;4.30;;;;;;;;;;4969177;28;20434;-71
2023/07/24 06:39:59;;;;;;;6.63;4.50;;;;;;;;;;4969221;28;20444;-70
2023/07/24 06:42:25;;;;;;;8.73;3.90;;;;;;;;;;4968719;28;20426;-71
2023/07/24 06:44:51;;;;;;;5.43;3.47;;;;;;;;;;4967956;28;20425;-72
2023/07/24 06:47:17;;;;;;;30.00;5.90;;;;;;;;;;4967364;28;20441;-71
2023/07/24 06:49:43;;;;;;;10.00;4.43;;;;;;;;;;4967218;28;20441;-71
2023/07/24 06:52:09;;;;;;;14.30;4.20;;;;;;;;;;4968606;28;20485;-67
2023/07/24 06:54:35;;;;;;;5.30;4.30;;;;;;;;;;4971152;28;20460;-69
2023/07/24 06:57:01;;;;;;;3.67;3.10;;;;;;;;;;4967746;28;20429;-70
2023/07/24 06:59:27;;;;;;;5.97;4.40;;;;;;;;;;4966315;28;20532;-70
2023/07/24 07:01:53;;;;;;;6.60;4.43;;;;;;;;;;4967829;28;20456;-69
2023/07/24 07:04:19;;;;;;;8.20;3.60;;;;;;;;;;4968666;28;20995;-70
2023/07/24 07:06:45;;;;;;;3.97;3.67;;;;;;;;;;4964221;28;20438;-70
2023/07/24 07:09:11;;;;;;;4.23;3.93;;;;;;;;;;4966629;28;20434;-70
2023/07/24 07:11:38;;;;;;;5.57;5.07;;;;;;;;;;4966641;28;20449;-70
2023/07/24 07:14:04;;;;;;;5.13;4.83;;;;;;;;;;4967112;28;20449;-70
2023/07/24 07:16:30;;;;;;;5.93;4.37;;;;;;;;;;4967425;28;20441;-69
2023/07/24 07:18:56;;;;;;;11.10;5.00;;;;;;;;;;4966742;28;20491;-69
2023/07/24 07:21:22;;;;;;;5.03;4.13;;;;;;;;;;4971456;28;20438;-69
2023/07/24 07:23:48;;;;;;;7.70;4.70;;;;;;;;;;4966812;28;20191;-70
2023/07/24 07:26:14;;;;;;;4.50;4.07;;;;;;;;;;4967166;28;20453;-70
2023/07/24 07:28:40;;;;;;;7.50;3.87;;;;;;;;;;4967346;28;20426;-70
2023/07/24 07:31:06;;;;;;;8.60;5.47;;;;;;;;;;4966598;28;20434;-70
2023/07/24 07:33:32;;;;;;;9.67;4.63;;;;;;;;;;4965378;28;20481;-70
2023/07/24 07:35:58;;;;;;;4.80;4.40;;;;;;;;;;4968542;28;20426;-70
2023/07/24 07:38:24;;;;;;;10.20;4.73;;;;;;;;;;4967320;28;20939;-70
2023/07/24 07:40:50;;;;;;;16.17;11.60;;;;;;;;;;4966677;28;20445;-70
2023/07/24 07:43:16;;;;;;;6.90;6.37;;;;;;;;;;4965691;28;20441;-70
2023/07/24 07:45:42;;;;;;;7.43;5.33;;;;;;;;;;4967319;28;20437;-70
2023/07/24 07:48:08;;;;;;;7.43;6.80;;;;;;;;;;4965510;28;20905;-69
2023/07/24 07:50:34;;;;;;;5.47;5.07;;;;;;;;;;4966161;28;21803;-69
2023/07/24 07:53:00;;;;;;;6.10;4.30;;;;;;;;;;4970825;28;20579;-70
2023/07/24 07:55:26;;;;;;;8.03;3.70;;;;;;;;;;4970392;28;20433;-69
2023/07/24 07:57:52;;;;;;;6.03;5.63;;;;;;;;;;4977754;28;20472;-68
2023/07/24 08:00:18;;;;;;;4.60;4.40;;;;;;;;;;4970853;28;20521;-69
2023/07/24 08:02:44;;;;;;;5.63;5.23;;;;;;;;;;4959549;28;20837;-72
2023/07/24 08:05:11;;;;;;;4.30;4.00;;;;;;;;;;4968458;28;20456;-69
2023/07/24 08:07:37;;;;;;;6.07;4.23;;;;;;;;;;4969456;28;20445;-70
2023/07/24 08:10:03;;;;;;;5.50;4.37;;;;;;;;;;4968964;28;20866;-69
2023/07/24 08:12:30;;;;;;;6.20;5.80;;;;;;;;;;4969878;28;20532;-70
2023/07/24 08:14:56;;;;;;;7.60;4.70;;;;;;;;;;4970956;28;20441;-69
2023/07/24 08:17:22;;;;;;;9.57;4.83;;;;;;;;;;4970023;28;20436;-70
2023/07/24 08:19:48;;;;;;;19.93;11.63;;;;;;;;;;4969381;28;20520;-70
2023/07/24 08:22:14;;;;;;;109.03;49.17;;;;;;;;;;4968549;28;20533;-67
2023/07/24 08:24:40;;;;;;;6.30;5.43;;;;;;;;;;4970108;28;20468;-67
2023/07/24 08:27:06;;;;;;;6.13;4.50;;;;;;;;;;4969761;28;20434;-67
2023/07/24 08:29:34;;;;;;;4.60;4.37;;;;;;;;;;4969006;28;20500;-67
2023/07/24 08:32:00;;;;;;;4.13;3.73;;;;;;;;;;4969055;28;20535;-67
2023/07/24 08:34:26;;;;;;;4.03;3.93;;;;;;;;;;4970352;28;20954;-71
2023/07/24 08:36:52;;;;;;;6.30;4.23;;;;;;;;;;4972536;28;20434;-70
2023/07/24 08:39:18;;;;;;;4.40;4.00;;;;;;;;;;4968796;28;20803;-70
2023/07/24 08:41:44;;;;;;;4.80;4.00;;;;;;;;;;4969176;28;20831;-70
2023/07/24 08:44:11;;;;;;;4.27;3.97;;;;;;;;;;4952209;28;20495;-70
2023/07/24 08:46:38;;;;;;;8.60;4.67;;;;;;;;;;4969715;28;20457;-70
2023/07/24 08:49:04;;;;;;;6.10;4.10;;;;;;;;;;4969386;28;20434;-70
2023/07/24 08:51:32;;;;;;;12.60;4.17;;;;;;;;;;4969206;28;20462;-71
2023/07/24 08:53:58;;;;;;;6.50;4.93;;;;;;;;;;4968936;28;20827;-70
2023/07/24 08:56:24;;;;;;;6.17;5.63;;;;;;;;;;4969494;28;20998;-70
2023/07/24 08:58:50;;;;;;;4.70;4.30;;;;;;;;;;4968999;28;21615;-70
2023/07/24 09:01:16;;;;;;;5.90;4.77;;;;;;;;;;4968305;28;20498;-70
2023/07/24 09:03:42;;;;;;;5.60;4.20;;;;;;;;;;4969699;28;20425;-70
2023/07/24 09:06:08;;;;;;;6.70;4.77;;;;;;;;;;4969906;28;20426;-70
2023/07/24 09:08:36;;;;;;;5.27;4.77;;;;;;;;;;4970645;28;20457;-70
2023/07/24 09:11:03;;;;;;;9.37;5.13;;;;;;;;;;4969830;28;20434;-70
2023/07/24 09:13:29;;;;;;;9.80;5.30;;;;;;;;;;4969179;28;20490;-70
2023/07/24 09:15:55;;;;;;;12.53;5.83;;;;;;;;;;4967854;28;20462;-70
2023/07/24 09:18:21;;;;;;;5.20;4.60;;;;;;;;;;4970459;28;20511;-70
2023/07/24 09:20:47;;;;;;;8.20;4.93;;;;;;;;;;4969065;28;20437;-70
2023/07/24 09:23:14;;;;;;;6.90;4.47;;;;;;;;;;4969328;28;20821;-71
2023/07/24 09:25:42;;;;;;;9.20;4.57;;;;;;;;;;4969272;28;20429;-71
2023/07/24 09:28:11;;;;;;;7.10;5.50;;;;;;;;;;4969875;28;20446;-70
2023/07/24 09:30:38;;;;;;;5.87;5.30;;;;;;;;;;4969981;28;20433;-69
2023/07/24 09:33:04;;;;;;;6.87;4.20;;;;;;;;;;4969034;28;20496;-70
2023/07/24 09:35:31;;;;;;;6.43;5.20;;;;;;;;;;4969396;28;20442;-72
2023/07/24 09:38:04;;;;;;;8.87;5.37;;;;;;;;;;4968814;28;20442;-71
2023/07/24 09:40:37;;;;;;;6.00;4.50;;;;;;;;;;4968768;28;20426;-71
2023/07/24 09:43:03;;;;;;;4.90;4.60;;;;;;;;;;4969124;28;20434;-71
2023/07/24 09:45:29;;;;;;;4.60;4.30;;;;;;;;;;4969699;28;20417;-70
2023/07/24 09:47:59;;;;;;;4.63;4.40;;;;;;;;;;4969430;28;20532;-70
2023/07/24 09:50:26;;;;;;;3.60;3.47;;;;;;;;;;4970181;28;20926;-70
2023/07/24 09:52:52;;;;;;;4.80;4.17;;;;;;;;;;4968631;28;20477;-70
2023/07/24 09:55:21;;;;;;;9.90;4.10;;;;;;;;;;4968135;28;20434;-70
2023/07/24 09:57:49;;;;;;;14.80;9.63;;;;;;;;;;4975220;28;20434;-71
2023/07/24 10:00:15;;;;;;;7.93;5.47;;;;;;;;;;4969553;28;20476;-71
2023/07/24 10:02:41;;;;;;;3.53;3.33;;;;;;;;;;4968366;28;20425;-71
2023/07/24 10:05:07;;;;;;;3.40;2.90;;;;;;;;;;4969285;28;20429;-71
2023/07/24 10:07:34;;;;;;;4.17;3.87;;;;;;;;;;4971794;28;20438;-71
2023/07/24 10:10:00;;;;;;;10.40;3.50;;;;;;;;;;4970811;28;20430;-71
2023/07/24 10:12:27;;;;;;;2.37;2.37;;;;;;;;;;4967503;28;20913;-72
2023/07/24 10:14:54;;;;;;;3.13;2.80;;;;;;;;;;4967821;28;20861;-72
2023/07/24 10:17:36;;;;;;;4.00;2.73;;;;;;;;;;4968868;28;20985;-72
2023/07/24 10:20:06;;;;;;;6.47;2.90;;;;;;;;;;4971317;28;20450;-72
2023/07/24 10:22:33;;;;;;;2.30;2.20;;;;;;;;;;4966905;28;20442;-72
2023/07/24 10:24:58;;;;;;;2.40;2.20;;;;;;;;;;4971016;28;20430;-72
2023/07/24 10:27:25;;;;;;;3.50;3.20;;;;;;;;;;4966691;28;20446;-72
2023/07/24 10:30:02;;;;;;;3.33;3.13;;;;;;;;;;4962779;28;20442;-72
2023/07/24 10:32:28;;;;;;;4.00;3.33;;;;;;;;;;4962107;28;20485;-73
2023/07/24 10:35:08;;;;;;;4.30;2.80;;;;;;;;;;4958631;28;20465;-72
2023/07/24 10:37:38;;;;;;;3.37;2.60;;;;;;;;;;4961618;28;20525;-72
2023/07/24 10:40:04;;;;;;;2.47;2.37;;;;;;;;;;4953598;28;20450;-72
2023/07/24 10:42:33;;;;;;;4.37;4.00;;;;;;;;;;4966632;28;20426;-73
2023/07/24 10:45:10;;;;;;;2.83;2.63;;;;;;;;;;4966288;28;20430;-72
2023/07/24 10:47:36;;;;;;;3.57;3.27;;;;;;;;;;4970150;28;21480;-72
2023/07/24 10:50:02;;;;;;;2.50;2.40;;;;;;;;;;4966475;28;20911;-72
2023/07/24 10:52:30;;;;;;;5.10;3.17;;;;;;;;;;4966575;28;20802;-72
2023/07/24 10:54:56;;;;;;;2.83;2.73;;;;;;;;;;4967106;28;20437;-72
2023/07/24 10:57:26;;;;;;;2.90;2.20;;;;;;;;;;4966582;28;20517;-72
2023/07/24 10:59:52;;;;;;;3.90;3.60;;;;;;;;;;4965829;28;20446;-72
2023/07/24 11:02:18;;;;;;;3.73;3.50;;;;;;;;;;4965396;28;20438;-72
2023/07/24 11:04:44;;;;;;;3.27;3.03;;;;;;;;;;4966303;28;20488;-72
2023/07/24 11:07:10;;;;;;;3.90;3.53;;;;;;;;;;4966653;28;21025;-72
2023/07/24 11:09:37;;;;;;;3.30;3.20;;;;;;;;;;4967414;28;20856;-73
2023/07/24 11:12:12;;;;;;;4.40;3.53;;;;;;;;;;4965703;28;20426;-73
2023/07/24 11:14:48;;;;;;;2.40;2.30;;;;;;;;;;4967002;28;20503;-73
2023/07/24 11:17:14;;;;;;;3.10;3.00;;;;;;;;;;4966567;28;20475;-73
2023/07/24 11:19:40;;;;;;;2.97;2.60;;;;;;;;;;4966870;28;20445;-73
2023/07/24 11:22:07;;;;;;;2.83;2.73;;;;;;;;;;4965958;28;20521;-73
2023/07/24 11:24:33;;;;;;;2.60;2.50;;;;;;;;;;4964480;28;20485;-72
2023/07/24 11:26:59;;;;;;;2.50;2.40;;;;;;;;;;4971122;28;20462;-73
2023/07/24 11:29:25;;;;;;;2.40;2.30;;;;;;;;;;4968773;28;20441;-72
2023/07/24 11:32:00;;;;;;;3.17;3.03;;;;;;;;;;4968460;28;20949;-73
2023/07/24 11:34:26;;;;;;;4.03;3.60;;;;;;;;;;4969594;28;20438;-73
2023/07/24 11:36:52;;;;;;;4.17;2.97;;;;;;;;;;4968581;28;20462;-73
2023/07/24 11:39:24;;;;;;;2.87;2.73;;;;;;;;;;4969651;28;20965;-73
2023/07/24 11:41:50;;;;;;;2.67;2.47;;;;;;;;;;4971107;28;20434;-72
2023/07/24 11:44:16;;;;;;;2.37;2.27;;;;;;;;;;4970296;28;20478;-73
2023/07/24 11:46:43;;;;;;;4.50;4.20;;;;;;;;;;4970153;28;20517;-72
2023/07/24 11:49:09;;;;;;;2.40;2.40;;;;;;;;;;4969079;28;20459;-72
2023/07/24 11:51:37;;;;;;;3.53;3.33;;;;;;;;;;4971000;28;20478;-72
2023/07/24 11:54:11;;;;;;;3.30;2.87;;;;;;;;;;4968800;28;20485;-73
2023/07/24 11:56:37;;;;;;;3.70;2.67;;;;;;;;;;4969745;28;20962;-69
2023/07/24 11:59:13;;;;;;;3.00;2.80;;;;;;;;;;4973428;28;20426;-72
2023/07/24 12:01:39;;;;;;;3.20;2.80;;;;;;;;;;4968453;28;20186;-72
2023/07/24 12:04:05;;;;;;;2.87;2.77;;;;;;;;;;4970556;28;20425;-72
2023/07/24 12:06:32;;;;;;;2.83;2.73;;;;;;;;;;4970229;28;20848;-72
2023/07/24 12:09:08;;;;;;;2.73;2.63;;;;;;;;;;4969815;28;20485;-72
2023/07/24 12:11:34;;;;;;;2.80;2.73;;;;;;;;;;4970161;28;20901;-72
2023/07/24 12:14:00;;;;;;;3.97;3.67;;;;;;;;;;4969719;28;20509;-72
2023/07/24 12:16:28;;;;;;;3.07;2.97;;;;;;;;;;4969669;28;20442;-72
2023/07/24 12:18:54;;;;;;;3.10;3.00;;;;;;;;;;4969836;28;20450;-72
2023/07/24 12:21:20;;;;;;;2.83;2.73;;;;;;;;;;4968802;28;20433;-73
2023/07/24 12:23:46;;;;;;;3.33;3.00;;;;;;;;;;4968246;28;20445;-72
2023/07/24 12:26:12;;;;;;;3.13;2.97;;;;;;;;;;4970829;28;20516;-72
2023/07/24 12:28:38;;;;;;;3.87;3.67;;;;;;;;;;4969885;28;20968;-73
2023/07/24 12:31:05;;;;;;;2.83;2.73;;;;;;;;;;4970642;28;20438;-73
2023/07/24 12:33:31;;;;;;;3.13;2.93;;;;;;;;;;4969966;28;20588;-73
2023/07/24 12:35:57;;;;;;;6.73;3.20;;;;;;;;;;4966940;28;20512;-72
2023/07/24 12:38:23;;;;;;;2.60;2.50;;;;;;;;;;4966652;28;20488;-72
2023/07/24 12:40:49;;;;;;;2.53;2.43;;;;;;;;;;4971857;28;20433;-73
2023/07/24 12:43:15;;;;;;;3.50;3.40;;;;;;;;;;4969936;28;20496;-72
2023/07/24 12:45:41;;;;;;;2.53;2.40;;;;;;;;;;4969348;28;20418;-73
2023/07/24 12:48:07;;;;;;;3.63;3.53;;;;;;;;;;4968922;28;20795;-72
2023/07/24 12:50:34;;;;;;;2.67;2.53;;;;;;;;;;4968883;28;20487;-72
2023/07/24 12:53:00;;;;;;;3.53;3.17;;;;;;;;;;4968913;28;20484;-72
2023/07/24 12:55:27;;;;;;;7.80;3.00;;;;;;;;;;4969708;28;20463;-72
2023/07/24 12:57:53;;;;;;;4.03;3.90;;;;;;;;;;4970099;28;20461;-72
2023/07/24 13:00:19;;;;;;;3.23;3.03;;;;;;;;;;4974654;28;20898;-72
2023/07/24 13:02:45;;;;;;;3.60;3.40;;;;;;;;;;4969105;28;20426;-72
2023/07/24 13:05:11;;;;;;;2.80;2.67;;;;;;;;;;4968565;28;20430;-72
2023/07/24 13:07:37;;;;;;;8.50;3.40;;;;;;;;;;4969012;28;20469;-72
2023/07/24 13:10:03;;;;;;;3.60;3.30;;;;;;;;;;4969388;28;20422;-72
2023/07/24 13:12:29;;;;;;;3.23;3.13;;;;;;;;;;4968606;28;20481;-72
2023/07/24 13:14:55;;;;;;;2.80;2.60;;;;;;;;;;4968935;28;20430;-72
2023/07/24 13:17:21;;;;;;;2.70;2.60;;;;;;;;;;4969921;28;20816;-73
2023/07/24 13:19:47;;;;;;;3.20;3.00;;;;;;;;;;4969081;28;20474;-72
2023/07/24 13:22:13;;;;;;;2.87;2.77;;;;;;;;;;4969025;28;20442;-72
2023/07/24 13:24:39;;;;;;;2.70;2.60;;;;;;;;;;4967665;28;20445;-73
2023/07/24 13:27:05;;;;;;;2.83;2.73;;;;;;;;;;4969280;28;20434;-72
2023/07/24 13:29:32;;;;;;;2.70;2.70;;;;;;;;;;4967830;28;20535;-72
2023/07/24 13:31:57;;;;;;;6.40;3.00;;;;;;;;;;4969115;28;20492;-72
2023/07/24 13:34:24;;;;;;;2.40;2.30;;;;;;;;;;4967300;28;20492;-72
2023/07/24 13:36:50;;;;;;;3.50;3.20;;;;;;;;;;4966837;28;20445;-72
2023/07/24 13:39:17;;;;;;;3.10;2.90;;;;;;;;;;4968901;28;20438;-72
2023/07/24 13:41:43;;;;;;;2.77;2.60;;;;;;;;;;4972346;28;20430;-72
2023/07/24 13:44:09;;;;;;;3.43;3.13;;;;;;;;;;4966721;28;20421;-72
2023/07/24 13:46:35;;;;;;;2.93;2.80;;;;;;;;;;4968252;28;20433;-72
2023/07/24 13:49:01;;;;;;;3.30;3.00;;;;;;;;;;4969767;28;20781;-72
2023/07/24 13:51:27;;;;;;;4.23;3.77;;;;;;;;;;4969084;28;20539;-72
2023/07/24 13:53:53;;;;;;;4.10;3.90;;;;;;;;;;4967665;28;20486;-73
2023/07/24 13:56:22;;;;;;;3.03;2.93;;;;;;;;;;4967398;28;20432;-72
2023/07/24 13:58:48;;;;;;;3.73;3.60;;;;;;;;;;4969192;28;20513;-73
2023/07/24 14:01:14;;;;;;;3.97;3.60;;;;;;;;;;4970506;28;20529;-72
2023/07/24 14:03:40;;;;;;;5.10;3.73;;;;;;;;;;4968456;28;20446;-73
2023/07/24 14:06:06;;;;;;;5.60;3.83;;;;;;;;;;4968073;28;20429;-72
2023/07/24 14:08:32;;;;;;;3.90;3.63;;;;;;;;;;4969228;28;20438;-73
2023/07/24 14:10:58;;;;;;;9.40;5.00;;;;;;;;;;4969316;28;20417;-73
2023/07/24 14:13:24;;;;;;;5.20;4.67;;;;;;;;;;4968629;28;21031;-72
2023/07/24 14:15:50;;;;;;;4.47;4.17;;;;;;;;;;4967346;28;20445;-72
2023/07/24 14:18:16;;;;;;;4.17;3.97;;;;;;;;;;4967028;28;20461;-73
2023/07/24 14:20:42;;;;;;;5.90;5.50;;;;;;;;;;4969038;28;20922;-72
2023/07/24 14:23:08;;;;;;;5.33;4.93;;;;;;;;;;4968235;28;20548;-73
2023/07/24 14:25:34;;;;;;;3.57;3.37;;;;;;;;;;4966394;28;20426;-72
2023/07/24 14:28:00;;;;;;;3.83;3.60;;;;;;;;;;4978268;28;20866;-70
2023/07/24 14:30:26;;;;;;;4.80;4.40;;;;;;;;;;4967835;28;20962;-72
2023/07/24 14:32:52;;;;;;;4.10;3.90;;;;;;;;;;4968117;28;20503;-72
2023/07/24 14:35:18;;;;;;;4.63;4.33;;;;;;;;;;4967967;28;20442;-73
2023/07/24 14:37:44;;;;;;;4.27;4.07;;;;;;;;;;4967558;28;20854;-73